N365HP -KAVX

Flight info

Callsign N365HP
Flight time N/A
Altitude VFR
Route
Aircraft

Departure

Time N/A
Airport -

Arrival

Time 2026-05-05 01:51
Airport Catalina Airport (KAVX)
Time Latitude Longitude Altitude Speed Heading
2026-05-05 01:12 33.99357 -117.26688 14644 ft 178 kts 238°
2026-05-05 01:13 33.98582 -117.27853 14622 ft 179 kts 231°
2026-05-05 01:13 33.97862 -117.29071 14636 ft 179 kts 237°
2026-05-05 01:13 33.97222 -117.30368 14633 ft 181 kts 239°
2026-05-05 01:13 33.96575 -117.31682 14633 ft 182 kts 238°
2026-05-05 01:14 33.95919 -117.32990 14658 ft 183 kts 238°
2026-05-05 01:14 33.95263 -117.34301 14658 ft 183 kts 238°
2026-05-05 01:14 33.94596 -117.35592 14654 ft 175 kts 230°
2026-05-05 01:14 33.93583 -117.36261 14639 ft 168 kts 193°
2026-05-05 01:15 33.92421 -117.35900 14389 ft 187 kts 152°
2026-05-05 01:15 33.91587 -117.34658 14081 ft 189 kts 131°
2026-05-05 01:15 33.90838 -117.33421 13899 ft 179 kts 136°
2026-05-05 01:15 33.90058 -117.32229 13481 ft 184 kts 137°
2026-05-05 01:16 33.89306 -117.30960 13140 ft 188 kts 118°
2026-05-05 01:16 33.89437 -117.29424 12717 ft 203 kts 49°
2026-05-05 01:16 33.90691 -117.29044 12072 ft 194 kts 330°
2026-05-05 01:16 33.91739 -117.29945 11862 ft 174 kts 319°
2026-05-05 01:17 33.92691 -117.30693 11741 ft 166 kts 326°
2026-05-05 01:17 33.93686 -117.31392 11366 ft 161 kts 299°
2026-05-05 01:17 33.93621 -117.32598 10692 ft 165 kts 225°
2026-05-05 01:17 33.92423 -117.32586 9756 ft 209 kts 153°
2026-05-05 01:18 33.91384 -117.31352 9277 ft 205 kts 135°
2026-05-05 01:18 33.90559 -117.29989 8877 ft 199 kts 127°
2026-05-05 01:18 33.89768 -117.28669 8542 ft 187 kts 139°
2026-05-05 01:18 33.88763 -117.27850 8365 ft 165 kts 167°
2026-05-05 01:19 33.87681 -117.27650 8141 ft 151 kts 195°
2026-05-05 01:19 33.86767 -117.28137 7883 ft 143 kts 217°
2026-05-05 01:19 33.85946 -117.28788 7647 ft 141 kts 220°
2026-05-05 01:19 33.85420 -117.29257 7471 ft 142 kts 222°
2026-05-05 01:20 33.84836 -117.30162 7220 ft 137 kts 251°
2026-05-05 01:20 33.84490 -117.31293 6986 ft 154 kts 251°
2026-05-05 01:20 33.84092 -117.32536 6753 ft 163 kts 250°
2026-05-05 01:20 33.83633 -117.33795 6639 ft 164 kts 248°
2026-05-05 01:21 33.83158 -117.35012 6638 ft 158 kts 247°
2026-05-05 01:21 33.82688 -117.36201 6638 ft 156 kts 247°
2026-05-05 01:21 33.82226 -117.37372 6634 ft 155 kts 247°
2026-05-05 01:21 33.81757 -117.38561 6635 ft 160 kts 246°
2026-05-05 01:22 33.81270 -117.39791 6640 ft 165 kts 247°
2026-05-05 01:22 33.80781 -117.41038 6638 ft 166 kts 246°
2026-05-05 01:22 33.80287 -117.42287 6652 ft 165 kts 247°
2026-05-05 01:22 33.79792 -117.43537 6662 ft 166 kts 248°
2026-05-05 01:23 33.79297 -117.44795 6661 ft 168 kts 248°
2026-05-05 01:23 33.78791 -117.46069 6668 ft 169 kts 248°
2026-05-05 01:23 33.78289 -117.47338 6668 ft 169 kts 246°
2026-05-05 01:23 33.77791 -117.48602 6672 ft 172 kts 246°
2026-05-05 01:24 33.77278 -117.49898 6672 ft 171 kts 246°
2026-05-05 01:24 33.76765 -117.51194 6673 ft 173 kts 246°
2026-05-05 01:24 33.76254 -117.52492 6665 ft 170 kts 247°
2026-05-05 01:24 33.75744 -117.53775 6668 ft 170 kts 246°
2026-05-05 01:25 33.75235 -117.55058 6672 ft 171 kts 245°
2026-05-05 01:25 33.74721 -117.56341 6670 ft 169 kts 246°
2026-05-05 01:25 33.74207 -117.57633 6670 ft 173 kts 246°
2026-05-05 01:25 33.73697 -117.58944 6659 ft 172 kts 245°
2026-05-05 01:26 33.73182 -117.60232 6674 ft 171 kts 245°
2026-05-05 01:26 33.72664 -117.61534 6677 ft 173 kts 246°
2026-05-05 01:26 33.72142 -117.62840 6677 ft 173 kts 246°
2026-05-05 01:26 33.71624 -117.64148 6671 ft 174 kts 246°
2026-05-05 01:27 33.71107 -117.65461 6668 ft 173 kts 246°
2026-05-05 01:27 33.70587 -117.66764 6668 ft 173 kts 246°
2026-05-05 01:27 33.70072 -117.68056 6667 ft 174 kts 246°
2026-05-05 01:27 33.69550 -117.69363 6667 ft 173 kts 246°
2026-05-05 01:28 33.69071 -117.70706 6666 ft 172 kts 258°
2026-05-05 01:28 33.69151 -117.72130 6667 ft 172 kts 279°
2026-05-05 01:28 33.69370 -117.73516 6668 ft 171 kts 276°
2026-05-05 01:28 33.69084 -117.74869 6667 ft 170 kts 241°
2026-05-05 01:29 33.68412 -117.76089 6458 ft 181 kts 238°
2026-05-05 01:29 33.67710 -117.77367 6208 ft 186 kts 239°
2026-05-05 01:29 33.67041 -117.78721 5963 ft 190 kts 241°
2026-05-05 01:29 33.66390 -117.80115 5706 ft 193 kts 243°
2026-05-05 01:30 33.65748 -117.81527 5453 ft 192 kts 243°
2026-05-05 01:30 33.65110 -117.82920 5208 ft 189 kts 243°
2026-05-05 01:30 33.64472 -117.84285 4953 ft 188 kts 242°
2026-05-05 01:30 33.63838 -117.85657 4702 ft 187 kts 242°
2026-05-05 01:31 33.63231 -117.86970 4679 ft 174 kts 242°
2026-05-05 01:31 33.62655 -117.88210 4672 ft 169 kts 242°
2026-05-05 01:31 33.62083 -117.89439 4670 ft 169 kts 242°
2026-05-05 01:31 33.61636 -117.90725 4670 ft 167 kts 263°
2026-05-05 01:32 33.61648 -117.92125 4671 ft 169 kts 271°
2026-05-05 01:32 33.61714 -117.93529 4671 ft 169 kts 272°
2026-05-05 01:32 33.61558 -117.94903 4669 ft 170 kts 244°
2026-05-05 01:32 33.60895 -117.96071 4672 ft 170 kts 235°
2026-05-05 01:33 33.60204 -117.97221 4670 ft 169 kts 237°
2026-05-05 01:33 33.59563 -117.98404 4669 ft 169 kts 239°
2026-05-05 01:33 33.58964 -117.99590 4666 ft 163 kts 240°
2026-05-05 01:33 33.58389 -118.00733 4664 ft 158 kts 240°
2026-05-05 01:34 33.57825 -118.01853 4663 ft 155 kts 240°
2026-05-05 01:34 33.57272 -118.02954 4664 ft 154 kts 240°
2026-05-05 01:34 33.56721 -118.04048 4664 ft 154 kts 240°
2026-05-05 01:34 33.56172 -118.05137 4664 ft 154 kts 240°
2026-05-05 01:35 33.55615 -118.06243 4665 ft 156 kts 240°
2026-05-05 01:35 33.55051 -118.07356 4661 ft 157 kts 240°
2026-05-05 01:35 33.54585 -118.08531 4657 ft 157 kts 262°
2026-05-05 01:35 33.54511 -118.09830 4659 ft 156 kts 265°
2026-05-05 01:36 33.54402 -118.11121 4659 ft 156 kts 264°
2026-05-05 01:36 33.54294 -118.12393 4658 ft 155 kts 264°
2026-05-05 01:36 33.54185 -118.13696 4662 ft 155 kts 264°
2026-05-05 01:36 33.53867 -118.14919 4664 ft 163 kts 237°
2026-05-05 01:37 33.53132 -118.15978 4675 ft 168 kts 232°
2026-05-05 01:37 33.52381 -118.17064 4684 ft 170 kts 234°
2026-05-05 01:37 33.51667 -118.18212 4683 ft 173 kts 236°
2026-05-05 01:37 33.50967 -118.19389 4685 ft 174 kts 236°
2026-05-05 01:38 33.50266 -118.20571 4689 ft 174 kts 236°
2026-05-05 01:38 33.49563 -118.21754 4689 ft 174 kts 236°
2026-05-05 01:38 33.48904 -118.22963 4684 ft 174 kts 231°
2026-05-05 01:38 33.48241 -118.24143 4683 ft 172 kts 256°
2026-05-05 01:39 33.48242 -118.25565 4687 ft 172 kts 275°
2026-05-05 01:39 33.48175 -118.26992 4688 ft 172 kts 261°
2026-05-05 01:39 33.47943 -118.28398 4692 ft 172 kts 258°
2026-05-05 01:39 33.47693 -118.29803 4692 ft 173 kts 258°
2026-05-05 01:40 33.47448 -118.31209 4692 ft 172 kts 259°
2026-05-05 01:40 33.47205 -118.32610 4695 ft 172 kts 259°
2026-05-05 01:40 33.46960 -118.34032 4578 ft 177 kts 258°
2026-05-05 01:40 33.46710 -118.35478 4526 ft 176 kts 258°
2026-05-05 01:41 33.46459 -118.36918 4340 ft 177 kts 259°
2026-05-05 01:41 33.46212 -118.38355 4086 ft 176 kts 258°
2026-05-05 01:41 33.45967 -118.39779 3831 ft 172 kts 260°
2026-05-05 01:41 33.46134 -118.41140 3578 ft 170 kts 288°
2026-05-05 01:42 33.46676 -118.42418 3324 ft 172 kts 308°
2026-05-05 01:42 33.47723 -118.43050 3219 ft 167 kts 346°
2026-05-05 01:42 33.48804 -118.43278 3211 ft 155 kts 342°
2026-05-05 01:42 33.49747 -118.43774 3207 ft 143 kts 327°
2026-05-05 01:43 33.50715 -118.43938 3214 ft 146 kts
2026-05-05 01:43 33.51610 -118.43378 3219 ft 149 kts 45°
2026-05-05 01:43 33.52068 -118.42285 3219 ft 149 kts 82°
2026-05-05 01:43 33.51889 -118.41100 3213 ft 145 kts 122°
2026-05-05 01:44 33.51190 -118.40297 3216 ft 137 kts 159°
2026-05-05 01:44 33.50290 -118.40113 3216 ft 128 kts 191°
2026-05-05 01:44 33.49413 -118.40251 3220 ft 127 kts 191°
2026-05-05 01:44 33.48534 -118.40371 3225 ft 124 kts 192°
2026-05-05 01:45 33.47716 -118.40487 3221 ft 114 kts 192°
2026-05-05 01:45 33.46943 -118.40602 3214 ft 110 kts 192°
2026-05-05 01:45 33.46189 -118.40714 3190 ft 108 kts 193°
2026-05-05 01:45 33.45450 -118.40822 3183 ft 106 kts 193°
2026-05-05 01:46 33.44722 -118.40930 3170 ft 105 kts 194°
2026-05-05 01:46 33.44013 -118.40981 3202 ft 103 kts 188°
2026-05-05 01:46 33.43288 -118.40984 3204 ft 103 kts 181°
2026-05-05 01:46 33.42581 -118.40919 3252 ft 101 kts 187°
2026-05-05 01:47 33.41877 -118.40957 3199 ft 107 kts 189°
2026-05-05 01:47 33.41102 -118.40916 3002 ft 112 kts 174°
2026-05-05 01:47 33.40504 -118.40366 2693 ft 120 kts 116°
2026-05-05 01:47 33.40528 -118.39435 2296 ft 105 kts 76°
2026-05-05 01:48 33.40665 -118.38641 1799 ft 98 kts 81°
2026-05-05 01:48 33.40907 -118.37952 1576 ft 86 kts 53°
2026-05-05 01:48 33.41301 -118.37345 1592 ft 99 kts 62°
2026-05-05 01:48 33.41753 -118.36766 1853 ft 98 kts 20°
2026-05-05 01:49 33.42298 -118.36993 2031 ft 89 kts 277°
2026-05-05 01:49 33.42016 -118.37600 2126 ft 84 kts 226°
2026-05-05 01:49 33.41646 -118.38167 2108 ft 86 kts 233°
2026-05-05 01:49 33.41320 -118.38757 1917 ft 86 kts 237°
2026-05-05 01:50 33.41016 -118.39366 1848 ft 88 kts 240°
2026-05-05 01:50 33.40818 -118.40061 1708 ft 86 kts 258°
2026-05-05 01:50 33.40736 -118.40793 1671 ft 95 kts 272°
2026-05-05 01:50 33.40600 -118.41419 1585 ft 64 kts 230°
2026-05-05 01:51 33.40406 -118.41736 1597 ft 35 kts 234°
2026-05-05 01:51 33.40305 -118.41905 1601 ft 20 kts 232°
2026-05-05 01:51 33.40231 -118.41976 1603 ft 8 kts 120°
2026-05-05 01:51 33.40271 -118.41894 1601 ft 19 kts 52°
2026-05-05 01:52 33.40364 -118.41738 1596 ft 22 kts 56°
2026-05-05 01:52 33.40342 -118.41614 1592 ft 6 kts 110°
2026-05-05 01:52 33.40361 -118.41579 1592 ft 6 kts 38°
2026-05-05 01:52 33.40362 -118.41568 1592 ft 0 kts 142°